sensor_id;sensor_type;location;lat;lon;timestamp;pressure;altitude;pressure_sealevel;temperature;humidity
67397;BME280;57728;50.448;18.824;2022-12-31T00:01:09;97852.75;;;5.39;71.70
67397;BME280;57728;50.448;18.824;2022-12-31T00:03:11;97852.34;;;5.42;71.53
67397;BME280;57728;50.448;18.824;2022-12-31T00:05:13;97854.22;;;5.48;71.71
67397;BME280;57728;50.448;18.824;2022-12-31T00:07:16;97847.81;;;5.49;71.61
67397;BME280;57728;50.448;18.824;2022-12-31T00:09:17;97858.00;;;5.61;71.60
67397;BME280;57728;50.448;18.824;2022-12-31T00:11:20;97848.47;;;5.65;71.60
67397;BME280;57728;50.448;18.824;2022-12-31T00:13:24;97844.34;;;5.69;71.43
67397;BME280;57728;50.448;18.824;2022-12-31T00:15:25;97845.81;;;5.72;71.04
67397;BME280;57728;50.448;18.824;2022-12-31T00:17:27;97840.19;;;5.73;71.06
67397;BME280;57728;50.448;18.824;2022-12-31T00:19:29;97834.56;;;5.75;71.00
67397;BME280;57728;50.448;18.824;2022-12-31T00:21:32;97831.66;;;5.76;71.37
67397;BME280;57728;50.448;18.824;2022-12-31T00:23:35;97831.88;;;5.75;71.29
67397;BME280;57728;50.448;18.824;2022-12-31T00:25:38;97833.75;;;5.81;71.46
67397;BME280;57728;50.448;18.824;2022-12-31T00:27:39;97836.06;;;5.91;71.57
67397;BME280;57728;50.448;18.824;2022-12-31T00:29:40;97842.13;;;5.99;71.71
67397;BME280;57728;50.448;18.824;2022-12-31T00:31:43;97849.81;;;6.09;71.65
67397;BME280;57728;50.448;18.824;2022-12-31T00:33:45;97850.66;;;6.23;71.59
67397;BME280;57728;50.448;18.824;2022-12-31T00:35:46;97842.16;;;6.33;71.31
67397;BME280;57728;50.448;18.824;2022-12-31T00:37:50;97845.25;;;6.43;71.02
67397;BME280;57728;50.448;18.824;2022-12-31T00:39:53;97844.00;;;6.52;71.04
67397;BME280;57728;50.448;18.824;2022-12-31T00:41:54;97844.84;;;6.60;70.74
67397;BME280;57728;50.448;18.824;2022-12-31T00:43:57;97835.06;;;6.59;70.73
67397;BME280;57728;50.448;18.824;2022-12-31T00:45:59;97845.66;;;6.67;70.21
67397;BME280;57728;50.448;18.824;2022-12-31T00:48:01;97846.91;;;6.71;69.98
67397;BME280;57728;50.448;18.824;2022-12-31T00:50:04;97858.16;;;6.68;70.13
67397;BME280;57728;50.448;18.824;2022-12-31T00:52:06;97850.84;;;6.68;69.92
67397;BME280;57728;50.448;18.824;2022-12-31T00:54:07;97870.66;;;6.69;70.20
67397;BME280;57728;50.448;18.824;2022-12-31T00:56:16;97869.56;;;6.70;70.35
67397;BME280;57728;50.448;18.824;2022-12-31T00:58:19;97870.66;;;6.69;70.28
67397;BME280;57728;50.448;18.824;2022-12-31T01:00:21;97861.47;;;6.77;70.21
67397;BME280;57728;50.448;18.824;2022-12-31T01:02:23;97861.03;;;6.80;70.16
67397;BME280;57728;50.448;18.824;2022-12-31T01:04:26;97864.78;;;6.85;70.01
67397;BME280;57728;50.448;18.824;2022-12-31T01:06:28;97862.69;;;6.87;70.13
67397;BME280;57728;50.448;18.824;2022-12-31T01:08:30;97868.50;;;6.91;69.90
67397;BME280;57728;50.448;18.824;2022-12-31T01:10:32;97871.84;;;6.93;69.89
67397;BME280;57728;50.448;18.824;2022-12-31T01:12:52;97860.19;;;6.93;69.99
67397;BME280;57728;50.448;18.824;2022-12-31T01:14:54;97877.06;;;6.95;70.28
67397;BME280;57728;50.448;18.824;2022-12-31T01:16:55;97843.94;;;6.93;70.26
67397;BME280;57728;50.448;18.824;2022-12-31T01:18:58;97855.19;;;6.96;70.32
67397;BME280;57728;50.448;18.824;2022-12-31T01:21:06;97861.03;;;7.00;70.27
67397;BME280;57728;50.448;18.824;2022-12-31T01:23:10;97864.34;;;7.02;70.28
67397;BME280;57728;50.448;18.824;2022-12-31T01:25:11;97863.47;;;7.08;70.09
67397;BME280;57728;50.448;18.824;2022-12-31T01:27:13;97859.34;;;6.99;70.36
67397;BME280;57728;50.448;18.824;2022-12-31T01:29:15;97864.94;;;7.04;70.33
67397;BME280;57728;50.448;18.824;2022-12-31T01:31:19;97874.34;;;7.01;70.23
67397;BME280;57728;50.448;18.824;2022-12-31T01:33:23;97874.72;;;6.98;70.59
67397;BME280;57728;50.448;18.824;2022-12-31T01:35:26;97866.00;;;6.89;70.65
67397;BME280;57728;50.448;18.824;2022-12-31T01:37:27;97868.72;;;6.89;70.83
67397;BME280;57728;50.448;18.824;2022-12-31T01:39:29;97857.28;;;6.87;70.68
67397;BME280;57728;50.448;18.824;2022-12-31T01:41:40;97850.63;;;6.83;71.07
67397;BME280;57728;50.448;18.824;2022-12-31T01:43:51;97866.88;;;6.83;71.31
67397;BME280;57728;50.448;18.824;2022-12-31T01:45:55;97862.28;;;6.84;71.49
67397;BME280;57728;50.448;18.824;2022-12-31T01:47:58;97847.09;;;6.83;71.88
67397;BME280;57728;50.448;18.824;2022-12-31T01:50:06;97847.50;;;6.86;71.99
67397;BME280;57728;50.448;18.824;2022-12-31T01:52:21;97864.16;;;6.90;71.99
67397;BME280;57728;50.448;18.824;2022-12-31T01:54:37;97832.09;;;6.87;71.97
67397;BME280;57728;50.448;18.824;2022-12-31T01:56:44;97848.94;;;6.96;72.18
67397;BME280;57728;50.448;18.824;2022-12-31T01:58:54;97887.22;;;6.99;72.28
67397;BME280;57728;50.448;18.824;2022-12-31T02:00:58;97851.00;;;7.00;72.49
67397;BME280;57728;50.448;18.824;2022-12-31T02:03:01;97843.94;;;6.99;73.12
67397;BME280;57728;50.448;18.824;2022-12-31T02:07:29;97847.72;;;6.92;73.77
67397;BME280;57728;50.448;18.824;2022-12-31T02:09:33;97844.16;;;6.91;74.29
67397;BME280;57728;50.448;18.824;2022-12-31T02:11:39;97862.06;;;6.92;74.40
67397;BME280;57728;50.448;18.824;2022-12-31T02:13:41;97857.28;;;6.94;74.57
67397;BME280;57728;50.448;18.824;2022-12-31T02:15:51;97852.47;;;6.96;74.54
67397;BME280;57728;50.448;18.824;2022-12-31T02:23:44;97830.38;;;7.06;74.90
67397;BME280;57728;50.448;18.824;2022-12-31T02:26:05;97822.03;;;7.08;75.06
67397;BME280;57728;50.448;18.824;2022-12-31T02:31:03;97815.16;;;7.18;75.06
67397;BME280;57728;50.448;18.824;2022-12-31T02:35:56;97831.78;;;7.22;75.09
67397;BME280;57728;50.448;18.824;2022-12-31T02:38:07;97811.59;;;7.18;74.94
67397;BME280;57728;50.448;18.824;2022-12-31T02:40:20;97827.38;;;7.28;74.81
67397;BME280;57728;50.448;18.824;2022-12-31T02:42:22;97808.84;;;7.25;74.88
67397;BME280;57728;50.448;18.824;2022-12-31T02:46:53;97809.28;;;7.21;74.78
67397;BME280;57728;50.448;18.824;2022-12-31T02:49:23;97819.50;;;7.19;74.93
67397;BME280;57728;50.448;18.824;2022-12-31T02:52:13;97830.09;;;7.21;75.01
67397;BME280;57728;50.448;18.824;2022-12-31T02:58:02;97835.28;;;7.29;75.07
67397;BME280;57728;50.448;18.824;2022-12-31T03:00:19;97809.09;;;7.16;75.28
67397;BME280;57728;50.448;18.824;2022-12-31T03:02:44;97819.84;;;7.36;75.34
67397;BME280;57728;50.448;18.824;2022-12-31T03:04:52;97826.91;;;7.44;75.29
67397;BME280;57728;50.448;18.824;2022-12-31T03:06:55;97831.44;;;7.50;75.17
67397;BME280;57728;50.448;18.824;2022-12-31T03:09:01;97833.13;;;7.51;74.91
67397;BME280;57728;50.448;18.824;2022-12-31T03:11:14;97841.22;;;7.58;74.85
67397;BME280;57728;50.448;18.824;2022-12-31T03:13:36;97835.34;;;7.61;74.70
67397;BME280;57728;50.448;18.824;2022-12-31T03:15:38;97839.09;;;7.67;74.57
67397;BME280;57728;50.448;18.824;2022-12-31T03:17:39;97825.75;;;7.65;74.62
67397;BME280;57728;50.448;18.824;2022-12-31T03:19:41;97821.34;;;7.71;74.46
67397;BME280;57728;50.448;18.824;2022-12-31T03:22:02;97827.38;;;7.73;74.46
67397;BME280;57728;50.448;18.824;2022-12-31T03:24:22;97839.44;;;7.77;74.34
67397;BME280;57728;50.448;18.824;2022-12-31T03:26:42;97834.41;;;7.81;74.28
67397;BME280;57728;50.448;18.824;2022-12-31T03:28:45;97829.59;;;7.83;74.15
67397;BME280;57728;50.448;18.824;2022-12-31T03:30:52;97814.00;;;7.78;73.98
67397;BME280;57728;50.448;18.824;2022-12-31T03:32:56;97826.22;;;7.87;73.96
67397;BME280;57728;50.448;18.824;2022-12-31T03:34:59;97803.16;;;7.78;74.00
67397;BME280;57728;50.448;18.824;2022-12-31T03:37:00;97820.81;;;7.87;73.81
67397;BME280;57728;50.448;18.824;2022-12-31T03:39:01;97837.25;;;7.92;73.71
67397;BME280;57728;50.448;18.824;2022-12-31T03:41:04;97837.88;;;7.95;73.63
67397;BME280;57728;50.448;18.824;2022-12-31T03:43:06;97841.84;;;7.92;73.77
67397;BME280;57728;50.448;18.824;2022-12-31T03:45:11;97843.50;;;7.93;73.45
67397;BME280;57728;50.448;18.824;2022-12-31T03:47:13;97862.28;;;7.95;73.34
67397;BME280;57728;50.448;18.824;2022-12-31T03:49:15;97865.59;;;7.97;73.33
67397;BME280;57728;50.448;18.824;2022-12-31T03:51:16;97867.63;;;8.01;73.25
67397;BME280;57728;50.448;18.824;2022-12-31T03:53:18;97856.44;;;7.91;73.23
67397;BME280;57728;50.448;18.824;2022-12-31T03:55:20;97879.72;;;8.05;72.99
67397;BME280;57728;50.448;18.824;2022-12-31T03:57:23;97858.91;;;7.99;73.01
67397;BME280;57728;50.448;18.824;2022-12-31T03:59:25;97850.09;;;8.04;72.85
67397;BME280;57728;50.448;18.824;2022-12-31T04:01:26;97857.19;;;8.05;72.67
67397;BME280;57728;50.448;18.824;2022-12-31T04:03:28;97839.44;;;8.09;72.59
67397;BME280;57728;50.448;18.824;2022-12-31T04:05:30;97845.91;;;8.08;72.61
67397;BME280;57728;50.448;18.824;2022-12-31T04:07:32;97850.50;;;8.07;72.56
67397;BME280;57728;50.448;18.824;2022-12-31T04:09:33;97854.50;;;8.05;72.57
67397;BME280;57728;50.448;18.824;2022-12-31T04:11:36;97854.03;;;8.08;72.46
67397;BME280;57728;50.448;18.824;2022-12-31T04:13:37;97867.41;;;8.03;72.55
67397;BME280;57728;50.448;18.824;2022-12-31T04:15:39;97868.03;;;8.05;72.44
67397;BME280;57728;50.448;18.824;2022-12-31T04:17:42;97850.56;;;8.01;72.42
67397;BME280;57728;50.448;18.824;2022-12-31T04:19:43;97871.34;;;8.07;72.48
67397;BME280;57728;50.448;18.824;2022-12-31T04:21:45;97858.25;;;8.04;72.38
67397;BME280;57728;50.448;18.824;2022-12-31T04:23:47;97868.41;;;8.08;72.44
67397;BME280;57728;50.448;18.824;2022-12-31T04:25:49;97858.44;;;8.09;72.34
67397;BME280;57728;50.448;18.824;2022-12-31T04:27:50;97871.78;;;8.04;72.60
67397;BME280;57728;50.448;18.824;2022-12-31T04:29:52;97873.03;;;8.08;72.48
67397;BME280;57728;50.448;18.824;2022-12-31T04:31:53;97892.19;;;8.13;72.48
67397;BME280;57728;50.448;18.824;2022-12-31T04:33:55;97893.00;;;8.14;72.43
67397;BME280;57728;50.448;18.824;2022-12-31T04:36:01;97892.78;;;8.15;72.56
67397;BME280;57728;50.448;18.824;2022-12-31T04:38:03;97902.16;;;8.19;72.45
67397;BME280;57728;50.448;18.824;2022-12-31T04:40:07;97907.13;;;8.22;72.42
67397;BME280;57728;50.448;18.824;2022-12-31T04:42:10;97912.34;;;8.24;72.50
67397;BME280;57728;50.448;18.824;2022-12-31T04:44:11;97899.63;;;8.24;72.46
67397;BME280;57728;50.448;18.824;2022-12-31T04:46:14;97920.88;;;8.27;72.44
67397;BME280;57728;50.448;18.824;2022-12-31T04:48:18;97904.59;;;8.27;72.49
67397;BME280;57728;50.448;18.824;2022-12-31T04:50:19;97908.13;;;8.28;72.35
67397;BME280;57728;50.448;18.824;2022-12-31T04:52:21;97896.28;;;8.22;72.48
67397;BME280;57728;50.448;18.824;2022-12-31T04:54:23;97907.50;;;8.33;72.32
67397;BME280;57728;50.448;18.824;2022-12-31T04:56:27;97898.28;;;8.34;72.38
67397;BME280;57728;50.448;18.824;2022-12-31T04:58:30;97897.03;;;8.36;72.31
67397;BME280;57728;50.448;18.824;2022-12-31T05:00:32;97895.75;;;8.39;72.40
67397;BME280;57728;50.448;18.824;2022-12-31T05:02:34;97899.53;;;8.38;72.34
67397;BME280;57728;50.448;18.824;2022-12-31T05:04:35;97906.63;;;8.39;72.41
67397;BME280;57728;50.448;18.824;2022-12-31T05:06:37;97894.50;;;8.41;72.33
67397;BME280;57728;50.448;18.824;2022-12-31T05:08:39;97881.38;;;8.38;72.44
67397;BME280;57728;50.448;18.824;2022-12-31T05:10:43;97901.19;;;8.46;72.39
67397;BME280;57728;50.448;18.824;2022-12-31T05:12:47;97891.56;;;8.43;72.36
67397;BME280;57728;50.448;18.824;2022-12-31T05:14:48;97891.56;;;8.43;72.51
67397;BME280;57728;50.448;18.824;2022-12-31T05:16:50;97885.72;;;8.46;72.46
67397;BME280;57728;50.448;18.824;2022-12-31T05:18:52;97889.03;;;8.48;72.50
67397;BME280;57728;50.448;18.824;2022-12-31T05:20:55;97879.25;;;8.47;72.58
67397;BME280;57728;50.448;18.824;2022-12-31T05:22:58;97887.81;;;8.44;72.58
67397;BME280;57728;50.448;18.824;2022-12-31T05:25:00;97899.88;;;8.48;72.77
67397;BME280;57728;50.448;18.824;2022-12-31T05:27:02;97881.34;;;8.45;72.79
67397;BME280;57728;50.448;18.824;2022-12-31T05:29:03;97825.63;;;8.17;72.80
67397;BME280;57728;50.448;18.824;2022-12-31T05:31:05;97889.88;;;8.49;72.79
67397;BME280;57728;50.448;18.824;2022-12-31T05:33:07;97882.78;;;8.48;72.81
67397;BME280;57728;50.448;18.824;2022-12-31T05:35:09;97890.25;;;8.52;72.99
67397;BME280;57728;50.448;18.824;2022-12-31T05:37:12;97894.44;;;8.48;72.92
67397;BME280;57728;50.448;18.824;2022-12-31T05:39:13;97909.88;;;8.54;72.97
67397;BME280;57728;50.448;18.824;2022-12-31T05:41:15;97906.13;;;8.55;72.92
67397;BME280;57728;50.448;18.824;2022-12-31T05:43:17;97894.81;;;8.58;73.05
67397;BME280;57728;50.448;18.824;2022-12-31T05:45:18;97894.19;;;8.56;73.04
67397;BME280;57728;50.448;18.824;2022-12-31T05:47:20;97903.41;;;8.55;73.17
67397;BME280;57728;50.448;18.824;2022-12-31T05:49:22;97908.66;;;8.50;73.29
67397;BME280;57728;50.448;18.824;2022-12-31T05:51:24;97915.28;;;8.54;73.46
67397;BME280;57728;50.448;18.824;2022-12-31T05:53:25;97904.44;;;8.54;73.36
67397;BME280;57728;50.448;18.824;2022-12-31T05:55:27;97886.13;;;8.50;73.42
67397;BME280;57728;50.448;18.824;2022-12-31T05:57:29;97872.84;;;8.35;73.59
67397;BME280;57728;50.448;18.824;2022-12-31T05:59:31;97931.41;;;8.49;73.78
67397;BME280;57728;50.448;18.824;2022-12-31T06:01:34;97934.97;;;8.43;73.68
67397;BME280;57728;50.448;18.824;2022-12-31T06:03:35;97940.81;;;8.47;73.86
67397;BME280;57728;50.448;18.824;2022-12-31T06:05:41;97944.97;;;8.42;73.99
67397;BME280;57728;50.448;18.824;2022-12-31T06:07:44;97954.59;;;8.45;74.12
67397;BME280;57728;50.448;18.824;2022-12-31T06:09:45;97937.69;;;8.43;74.19
67397;BME280;57728;50.448;18.824;2022-12-31T06:11:47;97932.88;;;8.45;74.15
67397;BME280;57728;50.448;18.824;2022-12-31T06:13:50;97932.03;;;8.51;74.08
67397;BME280;57728;50.448;18.824;2022-12-31T06:15:51;97916.56;;;8.52;74.02
67397;BME280;57728;50.448;18.824;2022-12-31T06:17:52;97934.97;;;8.50;74.14
67397;BME280;57728;50.448;18.824;2022-12-31T06:19:56;97922.00;;;8.52;74.08
67397;BME280;57728;50.448;18.824;2022-12-31T06:21:57;97905.25;;;8.55;73.89
67397;BME280;57728;50.448;18.824;2022-12-31T06:23:59;97899.63;;;8.56;73.95
67397;BME280;57728;50.448;18.824;2022-12-31T06:26:02;97898.16;;;8.54;73.86
67397;BME280;57728;50.448;18.824;2022-12-31T06:28:06;97888.22;;;8.48;73.88
67397;BME280;57728;50.448;18.824;2022-12-31T06:30:09;97885.94;;;8.45;74.06
67397;BME280;57728;50.448;18.824;2022-12-31T06:32:11;97904.50;;;8.41;74.05
67397;BME280;57728;50.448;18.824;2022-12-31T06:34:13;97915.34;;;8.41;74.25
67397;BME280;57728;50.448;18.824;2022-12-31T06:36:15;97926.44;;;8.39;74.33
67397;BME280;57728;50.448;18.824;2022-12-31T06:38:18;97927.88;;;8.42;74.36
67397;BME280;57728;50.448;18.824;2022-12-31T06:40:20;97925.38;;;8.40;74.25
67397;BME280;57728;50.448;18.824;2022-12-31T06:42:21;97920.44;;;8.31;74.14
67397;BME280;57728;50.448;18.824;2022-12-31T06:44:23;97921.00;;;8.39;74.16
67397;BME280;57728;50.448;18.824;2022-12-31T06:46:25;97929.53;;;8.43;74.14
67397;BME280;57728;50.448;18.824;2022-12-31T06:48:26;97925.38;;;8.40;73.87
67397;BME280;57728;50.448;18.824;2022-12-31T06:50:29;97926.63;;;8.45;74.03
67397;BME280;57728;50.448;18.824;2022-12-31T06:52:30;97937.06;;;8.41;73.97
67397;BME280;57728;50.448;18.824;2022-12-31T06:54:32;97934.78;;;8.45;74.10
67397;BME280;57728;50.448;18.824;2022-12-31T06:56:35;97942.06;;;8.44;74.14
67397;BME280;57728;50.448;18.824;2022-12-31T06:58:36;97938.94;;;8.40;74.07
67397;BME280;57728;50.448;18.824;2022-12-31T07:01:24;97946.84;;;8.42;74.09
67397;BME280;57728;50.448;18.824;2022-12-31T07:05:51;97934.09;;;8.49;74.11
67397;BME280;57728;50.448;18.824;2022-12-31T07:10:31;97947.84;;;8.54;73.76
67397;BME280;57728;50.448;18.824;2022-12-31T07:20:17;97957.81;;;8.60;73.52
67397;BME280;57728;50.448;18.824;2022-12-31T07:22:19;97958.88;;;8.59;73.54
67397;BME280;57728;50.448;18.824;2022-12-31T07:24:22;97959.50;;;8.62;73.39
67397;BME280;57728;50.448;18.824;2022-12-31T07:26:41;97947.75;;;8.68;73.35
67397;BME280;57728;50.448;18.824;2022-12-31T07:34:18;97945.66;;;8.70;73.20
67397;BME280;57728;50.448;18.824;2022-12-31T07:39:13;97958.00;;;8.66;72.94
67397;BME280;57728;50.448;18.824;2022-12-31T07:42:09;97975.03;;;8.80;73.06
67397;BME280;57728;50.448;18.824;2022-12-31T07:46:54;97969.25;;;8.94;72.78
67397;BME280;57728;50.448;18.824;2022-12-31T07:48:57;97971.50;;;8.98;72.54
67397;BME280;57728;50.448;18.824;2022-12-31T07:51:00;97923.44;;;8.80;72.50
67397;BME280;57728;50.448;18.824;2022-12-31T07:53:02;97966.25;;;9.28;72.15
67397;BME280;57728;50.448;18.824;2022-12-31T07:55:04;97969.25;;;9.38;71.45
67397;BME280;57728;50.448;18.824;2022-12-31T07:57:11;97986.09;;;9.47;71.16
67397;BME280;57728;50.448;18.824;2022-12-31T08:02:44;97993.69;;;9.63;70.68
67397;BME280;57728;50.448;18.824;2022-12-31T08:12:33;97977.81;;;9.79;69.80
67397;BME280;57728;50.448;18.824;2022-12-31T08:14:42;97963.41;;;9.78;69.64
67397;BME280;57728;50.448;18.824;2022-12-31T08:16:47;97968.44;;;9.93;69.55
67397;BME280;57728;50.448;18.824;2022-12-31T08:18:49;97973.72;;;10.07;69.75
67397;BME280;57728;50.448;18.824;2022-12-31T08:20:58;97970.81;;;10.39;68.84
67397;BME280;57728;50.448;18.824;2022-12-31T08:23:29;97991.84;;;10.62;68.45
67397;BME280;57728;50.448;18.824;2022-12-31T08:33:26;98002.81;;;10.55;67.19
67397;BME280;57728;50.448;18.824;2022-12-31T08:38:16;98003.00;;;10.23;67.87
67397;BME280;57728;50.448;18.824;2022-12-31T08:45:53;98002.44;;;10.03;69.09
67397;BME280;57728;50.448;18.824;2022-12-31T08:48:23;98003.19;;;10.10;68.82
67397;BME280;57728;50.448;18.824;2022-12-31T08:50:39;97995.47;;;10.25;68.60
67397;BME280;57728;50.448;18.824;2022-12-31T08:52:43;97994.09;;;10.35;68.40
67397;BME280;57728;50.448;18.824;2022-12-31T08:54:46;97986.78;;;10.35;68.14
67397;BME280;57728;50.448;18.824;2022-12-31T08:57:05;97989.69;;;10.33;68.39
67397;BME280;57728;50.448;18.824;2022-12-31T09:06:49;97944.56;;;9.77;69.12
67397;BME280;57728;50.448;18.824;2022-12-31T09:14:52;98011.94;;;9.93;69.80
67397;BME280;57728;50.448;18.824;2022-12-31T09:17:03;97990.94;;;10.01;69.80
67397;BME280;57728;50.448;18.824;2022-12-31T09:19:29;97978.81;;;10.15;70.07
67397;BME280;57728;50.448;18.824;2022-12-31T09:21:31;97975.84;;;10.54;69.75
67397;BME280;57728;50.448;18.824;2022-12-31T09:23:33;97976.50;;;10.91;68.41
67397;BME280;57728;50.448;18.824;2022-12-31T09:28:47;97971.28;;;11.73;66.20
67397;BME280;57728;50.448;18.824;2022-12-31T09:31:03;97963.78;;;12.03;65.22
67397;BME280;57728;50.448;18.824;2022-12-31T09:33:25;97961.19;;;11.97;64.78
67397;BME280;57728;50.448;18.824;2022-12-31T09:35:54;97950.75;;;11.82;64.98
67397;BME280;57728;50.448;18.824;2022-12-31T09:38:11;97983.13;;;11.78;65.06
67397;BME280;57728;50.448;18.824;2022-12-31T09:40:56;97977.66;;;11.90;65.19
67397;BME280;57728;50.448;18.824;2022-12-31T09:44:30;97984.31;;;11.94;64.97
67397;BME280;57728;50.448;18.824;2022-12-31T09:51:41;97990.94;;;11.98;64.45
67397;BME280;57728;50.448;18.824;2022-12-31T10:02:45;97985.06;;;11.18;67.27
67397;BME280;57728;50.448;18.824;2022-12-31T10:10:04;97992.31;;;11.13;68.14
67397;BME280;57728;50.448;18.824;2022-12-31T10:27:27;97978.44;;;11.26;68.60
67397;BME280;57728;50.448;18.824;2022-12-31T10:29:47;97948.09;;;10.99;68.71
67397;BME280;57728;50.448;18.824;2022-12-31T10:37:02;97981.88;;;11.22;69.18
67397;BME280;57728;50.448;18.824;2022-12-31T10:41:57;97996.44;;;11.27;69.34
67397;BME280;57728;50.448;18.824;2022-12-31T11:00:59;97986.00;;;11.72;68.38
67397;BME280;57728;50.448;18.824;2022-12-31T11:03:38;97974.59;;;11.86;68.46
67397;BME280;57728;50.448;18.824;2022-12-31T11:06:26;97974.16;;;12.18;67.49
67397;BME280;57728;50.448;18.824;2022-12-31T11:24:37;97969.28;;;12.49;65.22
67397;BME280;57728;50.448;18.824;2022-12-31T11:38:29;97965.19;;;12.81;65.33
67397;BME280;57728;50.448;18.824;2022-12-31T11:43:38;97918.03;;;12.85;64.43
67397;BME280;57728;50.448;18.824;2022-12-31T11:48:30;97964.75;;;13.35;64.04
67397;BME280;57728;50.448;18.824;2022-12-31T11:55:55;97956.44;;;13.47;62.58
67397;BME280;57728;50.448;18.824;2022-12-31T11:58:18;97958.91;;;13.31;62.87
67397;BME280;57728;50.448;18.824;2022-12-31T12:00:25;97947.66;;;13.11;63.08
67397;BME280;57728;50.448;18.824;2022-12-31T12:02:33;97941.47;;;12.98;63.45
67397;BME280;57728;50.448;18.824;2022-12-31T12:04:37;97934.41;;;12.85;63.92
67397;BME280;57728;50.448;18.824;2022-12-31T12:06:39;97903.19;;;12.64;64.20
67397;BME280;57728;50.448;18.824;2022-12-31T12:08:43;97931.09;;;12.66;64.84
67397;BME280;57728;50.448;18.824;2022-12-31T12:10:51;97940.34;;;12.65;64.80
67397;BME280;57728;50.448;18.824;2022-12-31T12:15:27;97942.66;;;12.56;64.96
67397;BME280;57728;50.448;18.824;2022-12-31T12:17:32;97938.75;;;12.52;65.20
67397;BME280;57728;50.448;18.824;2022-12-31T12:19:41;97933.94;;;12.43;65.21
67397;BME280;57728;50.448;18.824;2022-12-31T12:21:48;97936.78;;;12.48;65.43
67397;BME280;57728;50.448;18.824;2022-12-31T12:28:43;97935.53;;;12.38;65.78
67397;BME280;57728;50.448;18.824;2022-12-31T12:30:53;97934.00;;;12.31;65.82
67397;BME280;57728;50.448;18.824;2022-12-31T12:33:00;97905.78;;;12.25;65.85
67397;BME280;57728;50.448;18.824;2022-12-31T12:35:13;97934.94;;;12.36;66.16
67397;BME280;57728;50.448;18.824;2022-12-31T12:39:31;97929.22;;;12.38;65.98
67397;BME280;57728;50.448;18.824;2022-12-31T12:41:35;97897.94;;;12.29;66.06
67397;BME280;57728;50.448;18.824;2022-12-31T12:43:37;97921.28;;;12.36;66.03
67397;BME280;57728;50.448;18.824;2022-12-31T12:45:44;97930.28;;;12.37;66.12
67397;BME280;57728;50.448;18.824;2022-12-31T12:47:54;97917.81;;;12.41;66.09
67397;BME280;57728;50.448;18.824;2022-12-31T12:49:59;97914.59;;;12.44;66.08
67397;BME280;57728;50.448;18.824;2022-12-31T13:16:06;97902.28;;;12.42;66.15
67397;BME280;57728;50.448;18.824;2022-12-31T13:20:46;97923.78;;;12.55;66.06
67397;BME280;57728;50.448;18.824;2022-12-31T13:23:24;97937.78;;;12.59;66.03
67397;BME280;57728;50.448;18.824;2022-12-31T13:27:53;97932.38;;;12.47;66.14
67397;BME280;57728;50.448;18.824;2022-12-31T13:30:03;97911.91;;;12.32;66.30
67397;BME280;57728;50.448;18.824;2022-12-31T13:32:22;97935.03;;;12.42;66.49
67397;BME280;57728;50.448;18.824;2022-12-31T13:34:44;97947.25;;;12.39;66.55
67397;BME280;57728;50.448;18.824;2022-12-31T13:36:52;97950.75;;;12.34;66.57
67397;BME280;57728;50.448;18.824;2022-12-31T13:38:59;97956.91;;;12.30;66.83
67397;BME280;57728;50.448;18.824;2022-12-31T13:45:55;97969.94;;;12.39;66.68
67397;BME280;57728;50.448;18.824;2022-12-31T13:48:34;97966.63;;;12.37;66.97
67397;BME280;57728;50.448;18.824;2022-12-31T13:50:50;97962.22;;;12.36;66.76
67397;BME280;57728;50.448;18.824;2022-12-31T13:53:20;97979.34;;;12.32;66.83
67397;BME280;57728;50.448;18.824;2022-12-31T13:55:39;97958.81;;;12.29;66.83
67397;BME280;57728;50.448;18.824;2022-12-31T13:58:10;97970.22;;;12.26;67.23
67397;BME280;57728;50.448;18.824;2022-12-31T14:01:02;97966.44;;;12.27;67.20
67397;BME280;57728;50.448;18.824;2022-12-31T14:06:15;97948.66;;;12.13;66.94
67397;BME280;57728;50.448;18.824;2022-12-31T14:08:28;97966.91;;;12.24;67.10
67397;BME280;57728;50.448;18.824;2022-12-31T14:13:25;97971.91;;;12.27;67.03
67397;BME280;57728;50.448;18.824;2022-12-31T14:20:57;97969.56;;;12.19;67.26
67397;BME280;57728;50.448;18.824;2022-12-31T14:25:54;97983.38;;;12.29;67.13
67397;BME280;57728;50.448;18.824;2022-12-31T14:28:03;97962.63;;;12.28;67.13
67397;BME280;57728;50.448;18.824;2022-12-31T14:32:50;97981.84;;;12.33;66.99
67397;BME280;57728;50.448;18.824;2022-12-31T14:42:36;97983.31;;;12.41;66.91
67397;BME280;57728;50.448;18.824;2022-12-31T14:54:34;97983.72;;;12.62;66.51
67397;BME280;57728;50.448;18.824;2022-12-31T14:56:43;97969.81;;;12.63;66.29
67397;BME280;57728;50.448;18.824;2022-12-31T14:58:55;97983.22;;;12.65;66.18
67397;BME280;57728;50.448;18.824;2022-12-31T15:01:17;97966.28;;;12.63;66.17
67397;BME280;57728;50.448;18.824;2022-12-31T15:03:38;97977.50;;;12.66;66.13
67397;BME280;57728;50.448;18.824;2022-12-31T15:09:01;97971.47;;;12.64;66.14
67397;BME280;57728;50.448;18.824;2022-12-31T15:22:42;97979.84;;;12.75;65.94
67397;BME280;57728;50.448;18.824;2022-12-31T15:24:46;97977.13;;;12.75;66.18
67397;BME280;57728;50.448;18.824;2022-12-31T15:26:55;97983.41;;;12.75;65.94
67397;BME280;57728;50.448;18.824;2022-12-31T15:29:05;97991.84;;;12.73;65.92
67397;BME280;57728;50.448;18.824;2022-12-31T15:31:21;97985.31;;;12.75;66.00
67397;BME280;57728;50.448;18.824;2022-12-31T15:33:33;97999.53;;;12.77;65.84
67397;BME280;57728;50.448;18.824;2022-12-31T15:35:49;97993.84;;;12.78;65.90
67397;BME280;57728;50.448;18.824;2022-12-31T15:40:20;98000.72;;;12.81;65.80
67397;BME280;57728;50.448;18.824;2022-12-31T15:42:32;97998.41;;;12.72;65.86
67397;BME280;57728;50.448;18.824;2022-12-31T15:45:00;98011.63;;;12.81;65.68
67397;BME280;57728;50.448;18.824;2022-12-31T15:47:28;98018.19;;;12.80;65.88
67397;BME280;57728;50.448;18.824;2022-12-31T15:49:40;98010.00;;;12.80;65.75
67397;BME280;57728;50.448;18.824;2022-12-31T15:56:44;98030.19;;;12.79;65.63
67397;BME280;57728;50.448;18.824;2022-12-31T15:58:55;98007.16;;;12.75;65.71